Time;durP1;ratioP1;P1;durP2;ratioP2;P2;SDS_P1;SDS_P2;PMS_P1;PMS_P2;Temp;Humidity;BMP_temperature;BMP_pressure;BME280_temperature;BME280_humidity;BME280_pressure;Samples;Min_cycle;Max_cycle;Signal;HPM_P1;HPM_P2
2022/09/17 00:02:24;;;;;;;11.77;2.10;;;13.30;99.90;;;;;;5027690;28;20447;-69
2022/09/17 00:04:50;;;;;;;10.40;2.30;;;13.30;99.90;;;;;;5030174;28;20505;-67
2022/09/17 00:07:17;;;;;;;7.20;2.20;;;13.30;99.90;;;;;;5035835;28;20025;-67
2022/09/17 00:09:43;;;;;;;12.90;2.85;;;13.30;99.90;;;;;;5033891;28;20053;-67
2022/09/17 00:12:09;;;;;;;8.75;2.00;;;13.30;99.90;;;;;;5032449;28;20493;-67
2022/09/17 00:14:34;;;;;;;8.32;2.45;;;13.20;99.90;;;;;;5034776;28;20029;-67
2022/09/17 00:17:00;;;;;;;11.00;2.83;;;13.30;99.90;;;;;;5025611;28;20629;-67
2022/09/17 00:19:26;;;;;;;8.60;1.98;;;13.30;99.90;;;;;;5032770;28;20533;-67
2022/09/17 00:21:51;;;;;;;14.98;2.60;;;13.20;99.90;;;;;;5032230;28;20132;-67
2022/09/17 00:24:19;;;;;;;9.70;2.03;;;13.20;99.90;;;;;;5032687;28;20020;-67
2022/09/17 00:26:45;;;;;;;10.57;2.47;;;13.30;99.90;;;;;;5031696;28;20560;-69
2022/09/17 00:29:11;;;;;;;9.02;2.00;;;13.20;99.90;;;;;;5026770;28;20104;-67
2022/09/17 00:31:37;;;;;;;9.20;2.20;;;13.30;99.90;;;;;;5028421;28;20074;-68
2022/09/17 00:34:05;;;;;;;10.95;2.47;;;13.20;99.90;;;;;;5028443;28;20425;-67
2022/09/17 00:36:35;;;;;;;10.68;2.75;;;13.20;99.90;;;;;;5030837;28;20513;-67
2022/09/17 00:39:01;;;;;;;9.10;1.90;;;13.20;99.90;;;;;;5032598;28;20499;-68
2022/09/17 00:41:30;;;;;;;12.48;2.97;;;13.20;99.90;;;;;;5026971;28;20037;-67
2022/09/17 00:43:58;;;;;;;9.13;2.35;;;13.20;99.90;;;;;;5028141;28;20112;-67
2022/09/17 00:46:42;;;;;;;10.90;2.53;;;13.30;99.90;;;;;;5031283;28;20526;-67
2022/09/17 00:49:22;;;;;;;10.52;2.53;;;13.20;99.90;;;;;;5032205;28;20065;-67
2022/09/17 00:52:03;;;;;;;10.50;2.47;;;13.10;99.90;;;;;;5024481;28;20153;-68
2022/09/17 00:54:28;;;;;;;10.43;2.45;;;13.00;99.90;;;;;;5026816;28;20053;-68
2022/09/17 00:56:55;;;;;;;12.27;3.30;;;13.10;99.90;;;;;;5022815;28;20071;-68
2022/09/17 00:59:22;;;;;;;6.35;2.58;;;13.10;99.90;;;;;;5029289;28;20482;-67
2022/09/17 01:01:48;;;;;;;8.80;2.65;;;13.00;99.90;;;;;;5023303;28;20553;-68
2022/09/17 01:04:18;;;;;;;11.82;2.50;;;13.10;99.90;;;;;;5028383;28;20025;-67
2022/09/17 01:07:09;;;;;;;10.82;2.58;;;13.10;99.90;;;;;;5026894;28;20048;-68
2022/09/17 01:10:05;;;;;;;5.72;2.42;;;13.10;99.90;;;;;;5028469;28;20088;-67
2022/09/17 01:13:08;;;;;;;7.95;2.13;;;13.10;99.90;;;;;;5026158;28;20036;-68
2022/09/17 01:15:47;;;;;;;6.22;2.28;;;13.20;99.90;;;;;;5030668;28;20029;-68
2022/09/17 01:18:39;;;;;;;9.43;2.55;;;13.20;99.90;;;;;;5024357;28;20014;-68
2022/09/17 01:21:35;;;;;;;6.43;2.72;;;13.20;99.90;;;;;;5026917;28;20473;-67
2022/09/17 01:24:21;;;;;;;7.43;1.92;;;13.20;99.90;;;;;;5024649;28;20076;-68
2022/09/17 01:27:09;;;;;;;13.48;2.90;;;13.20;99.90;;;;;;5026278;28;20050;-68
2022/09/17 01:29:43;;;;;;;6.80;2.25;;;13.20;99.90;;;;;;5025577;28;20037;-68
2022/09/17 01:32:26;;;;;;;9.98;2.72;;;13.20;99.90;;;;;;5029400;28;20033;-67
2022/09/17 01:35:21;;;;;;;9.48;2.35;;;13.20;99.90;;;;;;5025878;28;20029;-68
2022/09/17 01:37:59;;;;;;;14.18;2.60;;;13.20;99.90;;;;;;5030370;28;20431;-67
2022/09/17 01:40:33;;;;;;;9.20;2.28;;;13.20;99.90;;;;;;5027206;28;20049;-67
2022/09/17 01:43:05;;;;;;;15.00;3.17;;;13.30;99.90;;;;;;5031259;28;20068;-67
2022/09/17 01:46:07;;;;;;;15.75;3.10;;;13.30;99.90;;;;;;5024536;28;20042;-68
2022/09/17 01:48:38;;;;;;;16.02;2.65;;;13.30;99.90;;;;;;5011141;28;20136;-67
2022/09/17 01:51:09;;;;;;;14.75;3.13;;;13.20;99.90;;;;;;5025179;28;20030;-68
2022/09/17 01:53:56;;;;;;;11.38;2.10;;;13.10;99.90;;;;;;5029981;28;20079;-67
2022/09/17 01:56:32;;;;;;;7.80;2.45;;;13.20;99.90;;;;;;5022248;28;20390;-68
2022/09/17 01:59:12;;;;;;;14.13;3.03;;;13.20;99.90;;;;;;5031639;28;20025;-67
2022/09/17 02:01:42;;;;;;;9.43;2.00;;;13.20;99.90;;;;;;5029665;28;20026;-68
2022/09/17 02:04:13;;;;;;;7.28;2.20;;;13.20;99.90;;;;;;5034926;28;20014;-68
2022/09/17 02:06:44;;;;;;;10.18;2.05;;;13.30;99.90;;;;;;5028238;28;20053;-67
2022/09/17 02:09:40;;;;;;;15.85;2.55;;;13.30;99.90;;;;;;5024052;28;20026;-68
2022/09/17 02:12:11;;;;;;;9.60;2.45;;;13.40;99.90;;;;;;5025615;28;20145;-69
2022/09/17 02:14:46;;;;;;;13.02;2.65;;;13.40;99.90;;;;;;5030406;28;20032;-68
2022/09/17 02:17:37;;;;;;;9.35;2.40;;;13.40;99.90;;;;;;5028710;28;20047;-68
2022/09/17 02:20:05;;;;;;;13.52;2.20;;;13.40;99.90;;;;;;5031239;28;20104;-68
2022/09/17 02:22:51;;;;;;;9.73;2.13;;;13.40;99.90;;;;;;5025974;28;20018;-67
2022/09/17 02:25:26;;;;;;;12.85;2.33;;;13.40;99.90;;;;;;5029341;28;20418;-68
2022/09/17 02:28:00;;;;;;;11.13;2.17;;;13.40;99.90;;;;;;5029126;28;20032;-68
2022/09/17 02:30:26;;;;;;;11.75;2.08;;;13.40;99.90;;;;;;5020847;28;20486;-68
2022/09/17 02:32:53;;;;;;;10.50;2.28;;;13.30;99.90;;;;;;5021898;28;20037;-69
2022/09/17 02:35:19;;;;;;;12.43;2.05;;;13.30;99.90;;;;;;5032830;28;20061;-68
2022/09/17 02:37:44;;;;;;;8.40;2.00;;;13.30;99.90;;;;;;5019031;28;20073;-68
2022/09/17 02:40:16;;;;;;;9.25;1.75;;;13.30;99.90;;;;;;5027982;28;20439;-68
2022/09/17 02:43:25;;;;;;;12.32;2.08;;;13.30;99.90;;;;;;5022872;28;20400;-67
2022/09/17 02:46:31;;;;;;;8.18;2.00;;;13.30;99.90;;;;;;5021213;28;20040;-68
2022/09/17 02:49:07;;;;;;;9.40;1.90;;;13.30;99.90;;;;;;5028735;28;20484;-68
2022/09/17 02:51:56;;;;;;;11.77;1.73;;;13.40;99.90;;;;;;5028198;28;20461;-68
2022/09/17 02:54:28;;;;;;;9.05;1.52;;;13.40;99.90;;;;;;5021806;28;20100;-68
2022/09/17 02:57:18;;;;;;;6.15;1.67;;;13.40;99.90;;;;;;5024964;28;20482;-68
2022/09/17 02:59:57;;;;;;;12.27;2.00;;;13.40;99.90;;;;;;5022387;28;20478;-68
2022/09/17 03:02:48;;;;;;;8.48;1.80;;;13.40;99.90;;;;;;5022918;28;20080;-68
2022/09/17 03:05:17;;;;;;;9.55;1.77;;;13.40;99.90;;;;;;5030832;28;20026;-67
2022/09/17 03:07:43;;;;;;;9.63;1.88;;;13.50;99.90;;;;;;5021927;28;20104;-68
2022/09/17 03:10:09;;;;;;;13.10;2.10;;;13.40;99.90;;;;;;5024352;28;20160;-67
2022/09/17 03:12:36;;;;;;;10.75;1.70;;;13.40;99.90;;;;;;5026630;28;20734;-68
2022/09/17 03:15:02;;;;;;;9.63;1.55;;;13.40;99.90;;;;;;5024394;28;20034;-69
2022/09/17 03:17:28;;;;;;;8.23;1.80;;;13.40;99.90;;;;;;5027110;28;20164;-68
2022/09/17 03:19:54;;;;;;;11.02;1.92;;;13.40;99.90;;;;;;5024398;28;20053;-67
2022/09/17 03:22:19;;;;;;;9.63;1.80;;;13.40;99.90;;;;;;5024114;28;20382;-68
2022/09/17 03:24:45;;;;;;;7.75;1.45;;;13.40;99.90;;;;;;5022442;28;20036;-68
2022/09/17 03:27:11;;;;;;;8.68;1.83;;;13.40;99.90;;;;;;5023916;28;20034;-68
2022/09/17 03:29:36;;;;;;;9.77;2.13;;;13.40;99.90;;;;;;5026159;28;20033;-67
2022/09/17 03:32:03;;;;;;;11.63;1.50;;;13.30;99.90;;;;;;5034980;28;20025;-68
2022/09/17 03:34:28;;;;;;;7.68;1.60;;;13.30;99.90;;;;;;5030536;28;20083;-68
2022/09/17 03:36:54;;;;;;;8.85;1.58;;;13.30;99.90;;;;;;5029662;28;20029;-68
2022/09/17 03:39:19;;;;;;;12.50;1.70;;;13.30;99.90;;;;;;5032296;28;20097;-68
2022/09/17 03:41:45;;;;;;;5.80;1.20;;;13.30;99.90;;;;;;5027443;28;20496;-68
2022/09/17 03:44:11;;;;;;;7.57;1.35;;;13.20;99.90;;;;;;5025628;28;20108;-69
2022/09/17 03:46:36;;;;;;;8.57;1.90;;;13.20;99.90;;;;;;5032821;28;20363;-69
2022/09/17 03:49:02;;;;;;;8.93;1.67;;;13.20;99.90;;;;;;5024763;28;20028;-68
2022/09/17 03:51:28;;;;;;;8.52;1.70;;;13.20;99.90;;;;;;5026554;28;20075;-68
2022/09/17 03:53:54;;;;;;;10.18;1.70;;;13.30;99.90;;;;;;5026336;28;20076;-68
2022/09/17 03:56:19;;;;;;;10.98;1.50;;;13.30;99.90;;;;;;5026622;28;20105;-68
2022/09/17 03:58:45;;;;;;;8.95;1.60;;;13.20;99.90;;;;;;5027282;28;20032;-67
2022/09/17 04:01:11;;;;;;;11.63;1.58;;;13.20;99.90;;;;;;5028467;28;20095;-68
2022/09/17 04:03:36;;;;;;;5.35;1.40;;;13.10;99.90;;;;;;5032507;28;20049;-69
2022/09/17 04:06:02;;;;;;;8.65;1.60;;;13.20;99.90;;;;;;5022965;28;20060;-68
2022/09/17 04:08:28;;;;;;;11.15;1.83;;;13.30;99.90;;;;;;5031283;28;20093;-68
2022/09/17 04:10:53;;;;;;;11.68;1.58;;;13.20;99.90;;;;;;5022616;28;20046;-68
2022/09/17 04:13:19;;;;;;;8.00;1.63;;;13.20;99.90;;;;;;5033887;28;20040;-68
2022/09/17 04:15:46;;;;;;;8.70;1.45;;;13.30;99.90;;;;;;5027826;28;20038;-67
2022/09/17 04:18:12;;;;;;;10.18;1.80;;;13.30;99.90;;;;;;5029353;28;20026;-68
2022/09/17 04:20:38;;;;;;;10.82;1.73;;;13.20;99.90;;;;;;5026394;28;20021;-68
2022/09/17 04:23:05;;;;;;;9.63;2.42;;;13.20;99.90;;;;;;5022156;28;20028;-68
2022/09/17 04:25:32;;;;;;;8.63;1.77;;;13.20;99.90;;;;;;5026000;28;20474;-68
2022/09/17 04:27:57;;;;;;;8.00;1.40;;;13.20;99.90;;;;;;5028062;28;20026;-67
2022/09/17 04:30:23;;;;;;;7.80;1.50;;;13.20;99.90;;;;;;5027448;28;20059;-67
2022/09/17 04:32:49;;;;;;;9.75;1.35;;;13.10;99.90;;;;;;5029485;28;20029;-68
2022/09/17 04:35:14;;;;;;;4.97;1.50;;;13.10;99.90;;;;;;5032119;28;20496;-67
2022/09/17 04:37:40;;;;;;;7.93;1.30;;;13.10;99.90;;;;;;5032523;28;20033;-68
2022/09/17 04:40:07;;;;;;;8.20;1.45;;;13.10;99.90;;;;;;5030590;28;20104;-68
2022/09/17 04:42:32;;;;;;;10.35;1.35;;;13.20;99.90;;;;;;5024881;28;20108;-68
2022/09/17 04:44:58;;;;;;;10.30;1.63;;;13.20;99.90;;;;;;5024373;28;20160;-67
2022/09/17 04:47:24;;;;;;;9.10;2.00;;;13.10;99.90;;;;;;5032033;28;20024;-68
2022/09/17 04:49:50;;;;;;;7.45;1.38;;;13.10;99.90;;;;;;5027875;28;20030;-68
2022/09/17 04:52:15;;;;;;;8.10;1.70;;;13.00;99.90;;;;;;5031567;28;20049;-68
2022/09/17 04:54:41;;;;;;;9.32;1.60;;;13.00;99.90;;;;;;5030058;28;20394;-68
2022/09/17 04:57:07;;;;;;;15.93;1.60;;;13.10;99.90;;;;;;5030560;28;20025;-68
2022/09/17 04:59:33;;;;;;;8.45;1.52;;;13.10;99.90;;;;;;5032779;28;20075;-68
2022/09/17 05:01:58;;;;;;;6.85;1.35;;;13.00;99.90;;;;;;5027315;28;20073;-67
2022/09/17 05:04:24;;;;;;;14.35;1.88;;;13.00;99.90;;;;;;5034290;28;20095;-67
2022/09/17 05:06:50;;;;;;;9.82;1.58;;;13.00;99.90;;;;;;5027147;28;20042;-68
2022/09/17 05:09:15;;;;;;;10.75;1.80;;;12.90;99.90;;;;;;5033687;28;20108;-68
2022/09/17 05:11:41;;;;;;;9.88;1.70;;;12.90;99.90;;;;;;5029925;28;20424;-68
2022/09/17 05:14:06;;;;;;;11.13;2.03;;;12.90;99.90;;;;;;5029103;28;20057;-67
2022/09/17 05:16:32;;;;;;;10.77;1.60;;;13.00;99.90;;;;;;5031066;28;20076;-67
2022/09/17 05:18:58;;;;;;;11.63;1.77;;;13.00;99.90;;;;;;5032004;28;20489;-68
2022/09/17 05:21:24;;;;;;;10.57;4.95;;;13.10;99.90;;;;;;5029892;28;20051;-74
2022/09/17 05:23:49;;;;;;;10.05;1.95;;;13.10;99.90;;;;;;5027527;28;20398;-67
2022/09/17 05:26:15;;;;;;;9.57;1.65;;;13.10;99.90;;;;;;5032976;28;20124;-68
2022/09/17 05:28:41;;;;;;;11.30;2.83;;;13.10;99.90;;;;;;5033388;28;20028;-67
2022/09/17 05:31:07;;;;;;;7.35;2.08;;;13.10;99.90;;;;;;5033096;28;20025;-68
2022/09/17 05:33:33;;;;;;;12.20;2.97;;;13.10;99.90;;;;;;5033278;28;20017;-67
2022/09/17 05:35:59;;;;;;;10.30;2.10;;;13.10;99.90;;;;;;5033002;28;20025;-68
2022/09/17 05:38:25;;;;;;;6.97;1.98;;;13.20;99.90;;;;;;5032911;28;20099;-67
2022/09/17 05:40:50;;;;;;;14.50;2.10;;;13.20;99.90;;;;;;5033368;28;20029;-67
2022/09/17 05:43:16;;;;;;;8.43;1.88;;;13.20;99.90;;;;;;5033398;28;20041;-68
2022/09/17 05:45:43;;;;;;;10.68;1.90;;;13.20;99.90;;;;;;5033290;28;20069;-67
2022/09/17 05:48:11;;;;;;;14.93;3.28;;;13.20;99.90;;;;;;5033075;28;20032;-68
2022/09/17 05:50:37;;;;;;;9.55;2.72;;;13.20;99.90;;;;;;5031366;28;20386;-68
2022/09/17 05:53:10;;;;;;;12.73;2.28;;;13.20;99.90;;;;;;5032600;28;20033;-67
2022/09/17 05:55:35;;;;;;;11.68;1.90;;;13.20;99.90;;;;;;5031875;28;20367;-68
2022/09/17 05:58:08;;;;;;;10.30;1.90;;;13.30;99.90;;;;;;5031936;28;20035;-68
2022/09/17 06:00:34;;;;;;;;;;;13.30;99.90;;;;;;5032292;28;20013;-67
2022/09/17 06:02:59;;;;;;;14.40;2.00;;;13.40;99.90;;;;;;5032463;28;20403;-68
2022/09/17 06:05:25;;;;;;;10.60;1.63;;;13.30;99.90;;;;;;5031044;28;20045;-68
2022/09/17 06:07:51;;;;;;;11.75;2.72;;;13.40;99.90;;;;;;5032942;28;20037;-73
2022/09/17 06:10:17;;;;;;;9.00;1.77;;;13.30;99.90;;;;;;5032645;28;20497;-75
2022/09/17 06:12:42;;;;;;;8.07;2.25;;;13.40;99.90;;;;;;5031848;28;20033;-67
2022/09/17 06:15:08;;;;;;;22.45;15.18;;;13.40;99.90;;;;;;5032659;28;20029;-69
2022/09/17 06:17:35;;;;;;;13.93;2.30;;;13.40;99.90;;;;;;5032424;28;20021;-68
2022/09/17 06:20:02;;;;;;;12.13;2.08;;;13.40;99.90;;;;;;5032240;28;20045;-68
2022/09/17 06:22:28;;;;;;;13.90;2.10;;;13.50;99.90;;;;;;5032660;28;20033;-68
2022/09/17 06:24:53;;;;;;;15.50;2.72;;;13.50;99.90;;;;;;5031933;28;20390;-68
2022/09/17 06:27:19;;;;;;;12.50;1.73;;;13.50;99.90;;;;;;5032666;28;20469;-68
2022/09/17 06:29:44;;;;;;;13.18;2.33;;;13.50;99.90;;;;;;5023791;28;20585;-68
2022/09/17 06:32:11;;;;;;;13.93;2.25;;;13.40;99.90;;;;;;5025949;28;20030;-68
2022/09/17 06:34:38;;;;;;;14.38;1.90;;;13.60;99.90;;;;;;5025543;28;20026;-68
2022/09/17 06:37:04;;;;;;;14.80;2.15;;;13.60;99.90;;;;;;5024306;28;20034;-67
2022/09/17 06:39:30;;;;;;;11.75;1.95;;;13.50;99.90;;;;;;5025967;28;20025;-67
2022/09/17 06:41:56;;;;;;;14.05;2.30;;;13.50;99.90;;;;;;5025073;28;20290;-67
2022/09/17 06:44:21;;;;;;;8.45;1.83;;;13.50;99.90;;;;;;5023725;28;20032;-68
2022/09/17 06:46:50;;;;;;;13.35;1.88;;;13.60;99.90;;;;;;5020927;28;20563;-67
2022/09/17 06:49:17;;;;;;;12.65;2.33;;;13.50;99.90;;;;;;5019102;28;20497;-67
2022/09/17 06:51:43;;;;;;;10.20;1.90;;;13.50;99.90;;;;;;5003705;28;20076;-69
2022/09/17 06:54:09;;;;;;;8.93;2.03;;;13.50;99.90;;;;;;5030441;28;20029;-69
2022/09/17 06:56:35;;;;;;;12.82;1.75;;;13.40;99.90;;;;;;5026809;28;20034;-67
2022/09/17 06:59:01;;;;;;;11.05;2.85;;;13.40;99.90;;;;;;5027732;28;20113;-72
2022/09/17 07:01:26;;;;;;;6.82;1.48;;;13.50;99.90;;;;;;5025595;28;20543;-67
2022/09/17 07:03:52;;;;;;;14.02;2.30;;;13.40;99.90;;;;;;5032283;28;20470;-72
2022/09/17 07:06:17;;;;;;;10.27;1.83;;;13.30;99.90;;;;;;5028043;28;20407;-71
2022/09/17 07:08:43;;;;;;;8.90;1.70;;;13.30;99.90;;;;;;5027383;28;20496;-66
2022/09/17 07:11:09;;;;;;;12.43;2.20;;;13.30;99.90;;;;;;5026635;28;20557;-66
2022/09/17 07:13:35;;;;;;;12.40;1.90;;;13.30;99.90;;;;;;5028238;28;20022;-66
2022/09/17 07:16:02;;;;;;;6.00;1.70;;;13.40;99.90;;;;;;5033809;28;20044;-66
2022/09/17 07:18:28;;;;;;;8.35;1.92;;;13.30;99.90;;;;;;5029480;28;20376;-66
2022/09/17 07:20:58;;;;;;;13.05;2.15;;;13.30;99.90;;;;;;5025916;28;20037;-66
2022/09/17 07:23:26;;;;;;;10.05;2.15;;;13.40;99.90;;;;;;5044504;28;20021;-68
2022/09/17 07:25:57;;;;;;;12.43;2.17;;;13.50;99.90;;;;;;5035705;28;20048;-67
2022/09/17 07:28:23;;;;;;;10.27;2.13;;;13.50;99.90;;;;;;5030193;28;20019;-67
2022/09/17 07:30:50;;;;;;;8.38;2.08;;;13.50;99.90;;;;;;5024062;28;20033;-67
2022/09/17 07:33:18;;;;;;;9.93;2.00;;;13.60;99.90;;;;;;5022468;28;20026;-67
2022/09/17 07:35:54;;;;;;;14.80;2.45;;;13.60;99.90;;;;;;5021598;28;20033;-67
2022/09/17 07:38:21;;;;;;;12.27;2.30;;;13.60;99.90;;;;;;5024697;28;20029;-68
2022/09/17 07:40:58;;;;;;;11.80;2.28;;;13.70;99.90;;;;;;5033433;28;20022;-69
2022/09/17 07:43:29;;;;;;;11.88;2.17;;;13.80;99.90;;;;;;5025148;28;20060;-67
2022/09/17 07:45:58;;;;;;;10.65;2.08;;;13.80;99.90;;;;;;5029968;28;20041;-68
2022/09/17 07:48:24;;;;;;;7.63;1.52;;;13.90;99.90;;;;;;5020940;28;20091;-67
2022/09/17 07:50:50;;;;;;;7.97;2.00;;;14.00;99.90;;;;;;5025320;28;20087;-72
2022/09/17 07:53:15;;;;;;;10.00;2.08;;;14.10;99.90;;;;;;5023516;28;20439;-71
2022/09/17 07:55:41;;;;;;;15.68;2.53;;;14.00;99.90;;;;;;5028125;28;20108;-67
2022/09/17 07:58:07;;;;;;;10.88;1.77;;;14.10;99.90;;;;;;5024660;28;20030;-71
2022/09/17 08:00:33;;;;;;;7.88;2.10;;;14.20;99.90;;;;;;5022972;28;20087;-67
2022/09/17 08:02:59;;;;;;;7.60;1.58;;;14.10;99.90;;;;;;5028359;28;20029;-70
2022/09/17 08:05:26;;;;;;;9.82;1.83;;;14.10;99.90;;;;;;5028912;28;20025;-65
2022/09/17 08:07:53;;;;;;;6.30;1.25;;;14.20;99.90;;;;;;5025665;28;20113;-67
2022/09/17 08:10:21;;;;;;;8.48;1.80;;;14.20;99.90;;;;;;5032034;28;20022;-66
2022/09/17 08:12:54;;;;;;;5.38;1.40;;;14.20;99.90;;;;;;5030869;28;20441;-66
2022/09/17 08:15:20;;;;;;;8.00;1.88;;;14.30;99.90;;;;;;5027527;28;20030;-66
2022/09/17 08:17:46;;;;;;;7.28;1.40;;;14.30;99.90;;;;;;5024093;28;20034;-67
2022/09/17 08:20:14;;;;;;;5.53;1.67;;;14.30;99.90;;;;;;5023152;28;20115;-66
2022/09/17 08:22:40;;;;;;;7.70;1.20;;;14.40;99.90;;;;;;5026673;28;20022;-66
2022/09/17 08:25:07;;;;;;;5.95;1.35;;;14.50;99.90;;;;;;5026752;28;20115;-67
2022/09/17 08:27:33;;;;;;;7.63;1.02;;;14.50;99.90;;;;;;5025387;28;20393;-67
2022/09/17 08:29:59;;;;;;;4.03;1.30;;;14.40;99.90;;;;;;5027001;28;20029;-67
2022/09/17 08:32:25;;;;;;;7.95;1.50;;;14.50;99.90;;;;;;5030996;28;20026;-67
2022/09/17 08:34:52;;;;;;;11.88;1.70;;;14.50;99.90;;;;;;5030859;28;20029;-66
2022/09/17 08:37:19;;;;;;;9.77;1.58;;;14.60;99.90;;;;;;5032266;28;20369;-67
2022/09/17 08:39:44;;;;;;;8.93;1.40;;;14.70;99.90;;;;;;5023625;28;20030;-69
2022/09/17 08:42:35;;;;;;;7.18;1.42;;;14.60;99.90;;;;;;5031290;28;20029;-66
2022/09/17 08:45:04;;;;;;;8.43;1.35;;;14.60;99.90;;;;;;5032517;28;20029;-66
2022/09/17 08:47:44;;;;;;;5.50;1.50;;;14.70;99.90;;;;;;5030299;28;20114;-66
2022/09/17 08:50:26;;;;;;;6.50;1.80;;;14.60;99.90;;;;;;5029259;28;20056;-66
2022/09/17 08:53:32;;;;;;;5.30;1.15;;;14.70;99.90;;;;;;5027420;28;20022;-68
2022/09/17 08:56:04;;;;;;;8.73;1.65;;;14.70;99.90;;;;;;5026270;28;20136;-68
2022/09/17 08:58:56;;;;;;;5.47;0.90;;;14.80;99.90;;;;;;5030613;28;20029;-68
2022/09/17 09:01:39;;;;;;;7.05;1.65;;;15.00;99.90;;;;;;5030679;28;20028;-67
2022/09/17 09:04:23;;;;;;;6.07;1.10;;;15.10;99.90;;;;;;5032091;28;20025;-68
2022/09/17 09:06:54;;;;;;;10.20;1.95;;;15.10;99.90;;;;;;5027328;28;20045;-69
2022/09/17 09:09:23;;;;;;;7.40;1.42;;;15.20;99.90;;;;;;5024043;28;20418;-68
2022/09/17 09:11:55;;;;;;;6.68;1.33;;;15.20;99.90;;;;;;5022590;28;20084;-68
2022/09/17 09:14:27;;;;;;;3.27;1.00;;;15.30;99.90;;;;;;5028091;28;20044;-68
2022/09/17 09:16:55;;;;;;;7.60;1.83;;;15.40;99.90;;;;;;5029235;28;20087;-68
2022/09/17 09:19:29;;;;;;;7.82;1.38;;;15.40;99.90;;;;;;5027668;28;20037;-68
2022/09/17 09:22:00;;;;;;;9.20;1.38;;;15.50;99.90;;;;;;5027955;28;20030;-69
2022/09/17 09:24:31;;;;;;;2.77;1.00;;;15.60;99.90;;;;;;5026832;28;20033;-67
2022/09/17 09:27:09;;;;;;;5.03;1.35;;;15.70;99.90;;;;;;5027842;28;20299;-67
2022/09/17 09:29:46;;;;;;;4.32;0.93;;;15.80;99.90;;;;;;5024876;28;20030;-67
2022/09/17 09:32:33;;;;;;;7.15;1.02;;;16.00;99.90;;;;;;5025695;28;20028;-68
2022/09/17 09:35:02;;;;;;;5.82;1.00;;;16.20;99.90;;;;;;5027599;28;20474;-67
2022/09/17 09:37:34;;;;;;;7.38;1.20;;;16.30;99.90;;;;;;5029530;28;20117;-67
2022/09/17 09:40:15;;;;;;;6.13;1.30;;;16.40;99.90;;;;;;5028570;28;20042;-67
2022/09/17 09:42:42;;;;;;;7.47;1.20;;;16.60;99.90;;;;;;5021208;28;20030;-68
2022/09/17 09:45:33;;;;;;;3.78;0.90;;;16.60;99.90;;;;;;5022680;28;20069;-67
2022/09/17 09:48:18;;;;;;;5.55;1.40;;;16.70;99.90;;;;;;5016619;28;20041;-67
2022/09/17 09:50:59;;;;;;;4.95;0.93;;;16.90;99.90;;;;;;5028205;28;20332;-67
2022/09/17 09:53:51;;;;;;;7.28;1.50;;;17.10;99.90;;;;;;5028192;28;20033;-68
2022/09/17 09:56:38;;;;;;;8.60;1.17;;;17.20;99.90;;;;;;5023039;28;20029;-68
2022/09/17 09:59:07;;;;;;;4.63;1.25;;;17.30;99.90;;;;;;5026810;28;20493;-69
2022/09/17 10:01:37;;;;;;;4.15;1.05;;;17.40;99.90;;;;;;5024581;28;20112;-69
2022/09/17 10:04:16;;;;;;;3.88;1.02;;;17.60;99.90;;;;;;5028455;28;20033;-68
2022/09/17 10:06:41;;;;;;;4.95;1.02;;;17.50;99.90;;;;;;5023149;28;20041;-69
2022/09/17 10:09:08;;;;;;;7.18;1.30;;;17.40;99.90;;;;;;5025562;28;20021;-69
2022/09/17 10:11:34;;;;;;;8.43;1.30;;;17.40;99.90;;;;;;5015062;28;20041;-68
2022/09/17 10:14:19;;;;;;;7.95;1.58;;;17.50;99.90;;;;;;5024165;28;20029;-69
2022/09/17 10:16:45;;;;;;;6.43;1.48;;;17.60;99.90;;;;;;5025734;28;20401;-68
2022/09/17 10:19:17;;;;;;;5.95;1.30;;;17.70;99.90;;;;;;5020096;28;20036;-68
2022/09/17 10:21:43;;;;;;;5.70;1.00;;;17.80;99.90;;;;;;5024316;28;20029;-68
2022/09/17 10:24:30;;;;;;;3.22;1.00;;;17.90;99.90;;;;;;5019698;28;20036;-69
2022/09/17 10:27:14;;;;;;;8.50;1.17;;;18.00;99.90;;;;;;5026406;28;20045;-69
2022/09/17 10:29:45;;;;;;;6.15;1.20;;;18.00;99.90;;;;;;5024248;28;20026;-69
2022/09/17 10:32:16;;;;;;;5.97;1.60;;;17.80;99.90;;;;;;5022859;28;20044;-68
2022/09/17 10:35:17;;;;;;;197.93;13.55;;;17.60;99.90;;;;;;5026958;28;20033;-67
2022/09/17 10:37:42;;;;;;;164.02;10.88;;;17.20;99.90;;;;;;5021439;28;20086;-69
2022/09/17 10:40:30;;;;;;;30.52;3.38;;;16.80;99.90;;;;;;5026766;28;20034;-66
2022/09/17 10:43:15;;;;;;;12.00;1.70;;;16.60;99.90;;;;;;5019317;28;20026;-67
2022/09/17 10:45:43;;;;;;;7.50;1.70;;;16.30;99.90;;;;;;5023096;28;20034;-66
2022/09/17 10:48:19;;;;;;;5.00;0.70;;;16.10;99.90;;;;;;5022883;28;20033;-67
2022/09/17 10:50:49;;;;;;;3.55;0.70;;;16.10;99.90;;;;;;5023760;28;20029;-68
2022/09/17 10:53:16;;;;;;;2.45;0.60;;;15.90;99.90;;;;;;5018526;28;20029;-68
2022/09/17 10:55:46;;;;;;;3.63;0.90;;;15.90;99.90;;;;;;5028349;28;20024;-68
2022/09/17 10:58:30;;;;;;;9.50;0.70;;;16.30;99.90;;;;;;5023388;28;20035;-67
2022/09/17 11:01:14;;;;;;;2.90;0.40;;;16.40;99.90;;;;;;5024931;28;20457;-67
2022/09/17 11:04:01;;;;;;;5.35;0.50;;;16.60;99.90;;;;;;5021070;28;20056;-68
2022/09/17 11:06:27;;;;;;;7.95;0.88;;;16.90;99.90;;;;;;5026309;28;20038;-67
2022/09/17 11:09:34;;;;;;;5.15;1.08;;;17.10;99.90;;;;;;5027278;28;20044;-68
2022/09/17 11:12:22;;;;;;;4.72;1.00;;;17.30;99.90;;;;;;5027934;28;20045;-67
2022/09/17 11:14:48;;;;;;;5.13;1.00;;;17.20;99.90;;;;;;5021248;28;20033;-68
2022/09/17 11:17:38;;;;;;;7.60;1.30;;;17.10;99.90;;;;;;5029348;28;20055;-66
2022/09/17 11:20:11;;;;;;;7.63;1.08;;;16.90;99.90;;;;;;5018735;28;20056;-66
2022/09/17 11:22:52;;;;;;;9.98;1.63;;;16.70;99.90;;;;;;5027915;28;20025;-65
2022/09/17 11:25:23;;;;;;;15.80;2.08;;;16.60;99.90;;;;;;5033751;28;20431;-64
2022/09/17 11:27:59;;;;;;;6.03;1.60;;;16.50;99.90;;;;;;5026098;28;20068;-64
2022/09/17 11:30:31;;;;;;;7.78;1.38;;;16.30;99.90;;;;;;5028365;28;20036;-64
2022/09/17 11:33:06;;;;;;;;;;;16.20;99.90;;;;;;5027437;28;20087;-63
2022/09/17 11:35:36;;;;;;;4.50;0.63;;;16.00;99.90;;;;;;5020736;28;20385;-64
2022/09/17 11:38:13;;;;;;;5.65;1.20;;;16.00;99.90;;;;;;5023461;28;20055;-64
2022/09/17 11:41:11;;;;;;;3.20;1.02;;;15.80;99.90;;;;;;5016636;28;20418;-64
2022/09/17 11:43:41;;;;;;;3.67;0.60;;;15.70;99.90;;;;;;5024001;28;20042;-63
2022/09/17 11:46:09;;;;;;;8.63;1.00;;;15.60;99.90;;;;;;5025567;28;20052;-64
2022/09/17 11:48:41;;;;;;;4.18;0.68;;;15.50;99.90;;;;;;5020376;28;20033;-63
2022/09/17 11:51:22;;;;;;;2.45;0.80;;;15.50;99.90;;;;;;5024244;28;20033;-65
2022/09/17 11:53:57;;;;;;;2.28;0.40;;;15.50;99.90;;;;;;5023555;28;20029;-63
2022/09/17 11:56:41;;;;;;;4.03;0.63;;;15.40;99.90;;;;;;5027502;28;20411;-64
2022/09/17 11:59:16;;;;;;;4.68;0.93;;;15.40;99.90;;;;;;5024938;28;20144;-64
2022/09/17 12:01:50;;;;;;;2.72;0.65;;;15.50;99.90;;;;;;5026023;28;20029;-64
2022/09/17 12:04:39;;;;;;;2.97;0.47;;;15.60;99.90;;;;;;5023627;28;20032;-64
2022/09/17 12:07:12;;;;;;;3.75;0.82;;;15.60;99.90;;;;;;5033546;28;20036;-64
2022/09/17 12:09:43;;;;;;;3.47;0.47;;;15.70;99.90;;;;;;5029409;28;20021;-64
2022/09/17 12:12:21;;;;;;;2.92;0.55;;;15.60;99.90;;;;;;5025879;28;20037;-64
2022/09/17 12:15:04;;;;;;;3.42;0.90;;;15.60;99.90;;;;;;5029868;28;20033;-66
2022/09/17 12:18:09;;;;;;;6.03;1.17;;;15.50;99.90;;;;;;5034086;28;20462;-63
2022/09/17 12:20:37;;;;;;;8.20;1.13;;;15.30;99.90;;;;;;5030977;28;20034;-64
2022/09/17 12:23:10;;;;;;;5.20;1.05;;;15.10;99.90;;;;;;5030717;28;20027;-63
2022/09/17 12:25:58;;;;;;;3.47;0.45;;;15.10;99.90;;;;;;5024738;28;20034;-64
2022/09/17 12:28:36;;;;;;;5.38;0.60;;;14.90;99.90;;;;;;5030151;28;20030;-64
2022/09/17 12:31:22;;;;;;;3.67;0.60;;;14.80;99.90;;;;;;5017921;28;20036;-63
2022/09/17 12:34:06;;;;;;;6.35;0.60;;;14.70;99.90;;;;;;5027929;28;20470;-64
2022/09/17 12:37:02;;;;;;;8.20;1.17;;;14.80;99.90;;;;;;5025434;28;20090;-64
2022/09/17 12:39:31;;;;;;;4.00;0.98;;;14.80;99.90;;;;;;5029288;28;20057;-69
2022/09/17 12:42:19;;;;;;;5.40;1.02;;;14.90;99.90;;;;;;5036856;28;20025;-65
2022/09/17 12:44:54;;;;;;;5.65;0.88;;;15.10;99.90;;;;;;5034906;28;20088;-70
2022/09/17 12:47:48;;;;;;;6.80;0.98;;;15.30;99.90;;;;;;5043615;28;20496;-69
2022/09/17 12:50:27;;;;;;;6.03;1.33;;;15.60;99.90;;;;;;5038349;28;20429;-65
2022/09/17 12:52:53;;;;;;;5.07;1.27;;;15.70;99.90;;;;;;5038223;28;20124;-65
2022/09/17 12:55:46;;;;;;;4.13;0.82;;;15.80;99.90;;;;;;5039350;28;20100;-66
2022/09/17 12:58:36;;;;;;;3.60;1.05;;;15.90;99.90;;;;;;5041004;28;20025;-65
2022/09/17 13:01:15;;;;;;;7.20;1.10;;;16.00;99.90;;;;;;5020925;28;20056;-68
2022/09/17 13:03:43;;;;;;;4.60;0.70;;;16.10;99.90;;;;;;5044345;28;20132;-64
2022/09/17 13:06:40;;;;;;;8.07;1.15;;;16.30;99.90;;;;;;5034589;28;20030;-66
2022/09/17 13:09:27;;;;;;;9.38;0.93;;;16.40;99.90;;;;;;5029443;28;20519;-65
2022/09/17 13:12:04;;;;;;;4.32;0.93;;;16.40;99.90;;;;;;5040730;28;20037;-66